sensor_id;sensor_type;location;lat;lon;timestamp;pressure;altitude;pressure_sealevel;temperature;humidity
9277;BME280;4676;42.678;23.244;2023-01-20T00:02:13;93185.53;;;6.95;100.00
9277;BME280;4676;42.678;23.244;2023-01-20T00:04:40;93170.47;;;6.93;100.00
9277;BME280;4676;42.678;23.244;2023-01-20T00:07:07;93175.28;;;6.99;100.00
9277;BME280;4676;42.678;23.244;2023-01-20T00:09:34;93119.94;;;6.98;100.00
9277;BME280;4676;42.678;23.244;2023-01-20T00:12:01;93067.91;;;6.97;100.00
9277;BME280;4676;42.678;23.244;2023-01-20T00:14:28;92967.88;;;6.82;100.00
9277;BME280;4676;42.678;23.244;2023-01-20T00:16:54;92996.38;;;7.01;100.00
9277;BME280;4676;42.678;23.244;2023-01-20T00:19:23;92972.50;;;6.91;100.00
9277;BME280;4676;42.678;23.244;2023-01-20T00:21:50;92976.16;;;6.84;100.00
9277;BME280;4676;42.678;23.244;2023-01-20T00:24:16;92985.63;;;6.97;100.00
9277;BME280;4676;42.678;23.244;2023-01-20T00:26:43;92990.41;;;7.03;100.00
9277;BME280;4676;42.678;23.244;2023-01-20T00:29:10;92983.41;;;7.10;100.00
9277;BME280;4676;42.678;23.244;2023-01-20T00:31:37;92994.75;;;7.19;100.00
9277;BME280;4676;42.678;23.244;2023-01-20T00:34:03;92989.31;;;7.28;100.00
9277;BME280;4676;42.678;23.244;2023-01-20T00:36:32;92982.50;;;7.30;100.00
9277;BME280;4676;42.678;23.244;2023-01-20T00:39:00;92983.50;;;7.26;100.00
9277;BME280;4676;42.678;23.244;2023-01-20T00:41:27;92977.13;;;7.19;100.00
9277;BME280;4676;42.678;23.244;2023-01-20T00:43:54;92907.31;;;6.66;100.00
9277;BME280;4676;42.678;23.244;2023-01-20T00:46:21;92949.56;;;6.97;100.00
9277;BME280;4676;42.678;23.244;2023-01-20T00:48:48;92966.84;;;7.04;100.00
9277;BME280;4676;42.678;23.244;2023-01-20T00:51:14;92982.91;;;7.02;100.00
9277;BME280;4676;42.678;23.244;2023-01-20T00:53:43;92971.19;;;7.01;100.00
9277;BME280;4676;42.678;23.244;2023-01-20T00:56:09;92968.69;;;7.01;100.00
9277;BME280;4676;42.678;23.244;2023-01-20T00:58:36;92983.19;;;6.96;100.00
9277;BME280;4676;42.678;23.244;2023-01-20T01:01:03;92975.78;;;6.93;100.00
9277;BME280;4676;42.678;23.244;2023-01-20T01:03:29;92979.09;;;6.93;100.00
9277;BME280;4676;42.678;23.244;2023-01-20T01:06:05;92973.13;;;6.96;100.00
9277;BME280;4676;42.678;23.244;2023-01-20T01:08:33;92981.38;;;6.99;100.00
9277;BME280;4676;42.678;23.244;2023-01-20T01:11:01;92972.31;;;6.95;100.00
9277;BME280;4676;42.678;23.244;2023-01-20T01:13:28;92975.69;;;6.94;100.00
9277;BME280;4676;42.678;23.244;2023-01-20T01:15:55;92965.34;;;7.00;100.00
9277;BME280;4676;42.678;23.244;2023-01-20T01:18:22;92967.13;;;6.98;100.00
9277;BME280;4676;42.678;23.244;2023-01-20T01:20:49;92965.63;;;7.13;100.00
9277;BME280;4676;42.678;23.244;2023-01-20T01:23:15;92972.69;;;7.24;100.00
9277;BME280;4676;42.678;23.244;2023-01-20T01:25:42;92978.13;;;7.33;100.00
9277;BME280;4676;42.678;23.244;2023-01-20T01:28:10;92975.31;;;7.39;100.00
9277;BME280;4676;42.678;23.244;2023-01-20T01:30:37;92960.16;;;7.41;100.00
9277;BME280;4676;42.678;23.244;2023-01-20T01:33:04;92946.75;;;7.58;100.00
9277;BME280;4676;42.678;23.244;2023-01-20T01:35:30;92953.97;;;7.65;100.00
9277;BME280;4676;42.678;23.244;2023-01-20T01:37:57;92968.53;;;7.77;100.00
9277;BME280;4676;42.678;23.244;2023-01-20T01:40:24;92967.41;;;7.83;100.00
9277;BME280;4676;42.678;23.244;2023-01-20T01:42:50;92953.75;;;7.87;100.00
9277;BME280;4676;42.678;23.244;2023-01-20T01:45:23;92960.56;;;7.85;100.00
9277;BME280;4676;42.678;23.244;2023-01-20T01:47:54;92968.06;;;7.86;100.00
9277;BME280;4676;42.678;23.244;2023-01-20T01:50:25;92994.78;;;7.90;100.00
9277;BME280;4676;42.678;23.244;2023-01-20T01:52:54;92963.84;;;7.87;100.00
9277;BME280;4676;42.678;23.244;2023-01-20T01:55:25;92999.31;;;7.84;100.00
9277;BME280;4676;42.678;23.244;2023-01-20T01:57:53;92980.31;;;7.77;100.00
9277;BME280;4676;42.678;23.244;2023-01-20T02:00:23;92990.53;;;7.74;100.00
9277;BME280;4676;42.678;23.244;2023-01-20T02:02:50;92987.88;;;7.77;100.00
9277;BME280;4676;42.678;23.244;2023-01-20T02:05:17;92978.19;;;7.68;100.00
9277;BME280;4676;42.678;23.244;2023-01-20T02:07:46;92974.75;;;7.70;100.00
9277;BME280;4676;42.678;23.244;2023-01-20T02:10:15;92959.53;;;7.72;100.00
9277;BME280;4676;42.678;23.244;2023-01-20T02:12:44;92958.78;;;7.70;100.00
9277;BME280;4676;42.678;23.244;2023-01-20T02:15:15;92956.28;;;7.70;100.00
9277;BME280;4676;42.678;23.244;2023-01-20T02:17:51;92951.38;;;7.67;100.00
9277;BME280;4676;42.678;23.244;2023-01-20T02:20:44;92947.06;;;7.69;100.00
9277;BME280;4676;42.678;23.244;2023-01-20T02:23:23;92947.28;;;7.64;100.00
9277;BME280;4676;42.678;23.244;2023-01-20T02:26:17;92957.16;;;7.69;100.00
9277;BME280;4676;42.678;23.244;2023-01-20T02:29:00;92951.75;;;7.76;100.00
9277;BME280;4676;42.678;23.244;2023-01-20T02:32:17;92947.88;;;7.69;100.00
9277;BME280;4676;42.678;23.244;2023-01-20T02:34:53;92939.84;;;7.61;100.00
9277;BME280;4676;42.678;23.244;2023-01-20T02:37:25;92938.31;;;7.59;100.00
9277;BME280;4676;42.678;23.244;2023-01-20T02:39:59;92934.97;;;7.58;100.00
9277;BME280;4676;42.678;23.244;2023-01-20T02:42:36;92932.91;;;7.66;100.00
9277;BME280;4676;42.678;23.244;2023-01-20T02:45:09;92937.34;;;7.61;100.00
9277;BME280;4676;42.678;23.244;2023-01-20T02:47:43;92928.91;;;7.62;100.00
9277;BME280;4676;42.678;23.244;2023-01-20T02:50:15;92926.59;;;7.58;100.00
9277;BME280;4676;42.678;23.244;2023-01-20T02:52:47;92925.31;;;7.49;100.00
9277;BME280;4676;42.678;23.244;2023-01-20T02:55:19;92907.75;;;7.47;100.00
9277;BME280;4676;42.678;23.244;2023-01-20T02:57:50;92910.78;;;7.54;100.00
9277;BME280;4676;42.678;23.244;2023-01-20T03:00:22;92892.63;;;7.47;100.00
9277;BME280;4676;42.678;23.244;2023-01-20T03:02:53;92885.28;;;7.43;100.00
9277;BME280;4676;42.678;23.244;2023-01-20T03:05:26;92885.28;;;7.43;100.00
9277;BME280;4676;42.678;23.244;2023-01-20T03:07:54;92901.97;;;7.45;100.00
9277;BME280;4676;42.678;23.244;2023-01-20T03:10:24;92915.75;;;7.38;100.00
9277;BME280;4676;42.678;23.244;2023-01-20T03:12:54;92909.88;;;7.38;100.00
9277;BME280;4676;42.678;23.244;2023-01-20T03:15:24;92900.63;;;7.38;100.00
9277;BME280;4676;42.678;23.244;2023-01-20T03:17:57;92907.38;;;7.38;100.00
9277;BME280;4676;42.678;23.244;2023-01-20T03:20:23;92906.41;;;7.40;100.00
9277;BME280;4676;42.678;23.244;2023-01-20T03:22:50;92903.22;;;7.37;100.00
9277;BME280;4676;42.678;23.244;2023-01-20T03:25:18;92904.69;;;7.41;100.00
9277;BME280;4676;42.678;23.244;2023-01-20T03:27:46;92904.63;;;7.42;100.00
9277;BME280;4676;42.678;23.244;2023-01-20T03:30:13;92903.31;;;7.52;100.00
9277;BME280;4676;42.678;23.244;2023-01-20T03:32:42;92905.03;;;7.52;100.00
9277;BME280;4676;42.678;23.244;2023-01-20T03:35:12;92903.69;;;7.45;100.00
9277;BME280;4676;42.678;23.244;2023-01-20T03:37:41;92916.94;;;7.48;100.00
9277;BME280;4676;42.678;23.244;2023-01-20T03:40:09;92913.59;;;7.48;100.00
9277;BME280;4676;42.678;23.244;2023-01-20T03:42:42;92911.00;;;7.49;100.00
9277;BME280;4676;42.678;23.244;2023-01-20T03:45:16;92897.97;;;7.41;100.00
9277;BME280;4676;42.678;23.244;2023-01-20T03:47:52;92903.75;;;7.61;100.00
9277;BME280;4676;42.678;23.244;2023-01-20T03:50:31;92884.75;;;7.53;100.00
9277;BME280;4676;42.678;23.244;2023-01-20T03:53:05;92880.38;;;7.57;100.00
9277;BME280;4676;42.678;23.244;2023-01-20T03:55:35;92881.34;;;7.54;100.00
9277;BME280;4676;42.678;23.244;2023-01-20T03:58:05;92883.94;;;7.53;100.00
9277;BME280;4676;42.678;23.244;2023-01-20T04:00:35;92877.28;;;7.52;100.00
9277;BME280;4676;42.678;23.244;2023-01-20T04:03:06;92850.06;;;7.41;100.00
9277;BME280;4676;42.678;23.244;2023-01-20T04:05:36;92863.66;;;7.56;100.00
9277;BME280;4676;42.678;23.244;2023-01-20T04:08:06;92852.91;;;7.52;100.00
9277;BME280;4676;42.678;23.244;2023-01-20T04:10:37;92841.63;;;7.60;100.00
9277;BME280;4676;42.678;23.244;2023-01-20T04:13:04;92862.91;;;7.54;100.00
9277;BME280;4676;42.678;23.244;2023-01-20T04:15:32;92859.03;;;7.47;100.00
9277;BME280;4676;42.678;23.244;2023-01-20T04:18:12;92843.19;;;7.45;100.00
9277;BME280;4676;42.678;23.244;2023-01-20T04:20:41;92835.31;;;7.51;100.00
9277;BME280;4676;42.678;23.244;2023-01-20T04:23:15;92822.13;;;7.46;100.00
9277;BME280;4676;42.678;23.244;2023-01-20T04:25:43;92821.53;;;7.58;100.00
9277;BME280;4676;42.678;23.244;2023-01-20T04:28:10;92826.72;;;7.55;100.00
9277;BME280;4676;42.678;23.244;2023-01-20T04:30:36;92832.63;;;7.71;100.00
9277;BME280;4676;42.678;23.244;2023-01-20T04:33:03;92822.56;;;7.71;100.00
9277;BME280;4676;42.678;23.244;2023-01-20T04:35:30;92819.59;;;7.63;100.00
9277;BME280;4676;42.678;23.244;2023-01-20T04:37:58;92831.56;;;7.60;100.00
9277;BME280;4676;42.678;23.244;2023-01-20T04:40:25;92838.13;;;7.62;100.00
9277;BME280;4676;42.678;23.244;2023-01-20T04:42:52;92850.06;;;7.59;100.00
9277;BME280;4676;42.678;23.244;2023-01-20T04:45:18;92856.88;;;7.57;100.00
9277;BME280;4676;42.678;23.244;2023-01-20T04:47:45;92842.50;;;7.59;100.00
9277;BME280;4676;42.678;23.244;2023-01-20T04:50:12;92870.41;;;7.56;100.00
9277;BME280;4676;42.678;23.244;2023-01-20T04:52:40;92867.88;;;7.56;100.00
9277;BME280;4676;42.678;23.244;2023-01-20T04:55:09;92861.81;;;7.60;100.00
9277;BME280;4676;42.678;23.244;2023-01-20T04:57:36;92876.31;;;7.54;100.00
9277;BME280;4676;42.678;23.244;2023-01-20T05:00:05;92886.19;;;7.59;100.00
9277;BME280;4676;42.678;23.244;2023-01-20T05:02:32;92884.25;;;7.47;100.00
9277;BME280;4676;42.678;23.244;2023-01-20T05:04:58;92899.53;;;7.61;100.00
9277;BME280;4676;42.678;23.244;2023-01-20T05:07:25;92901.38;;;7.58;100.00
9277;BME280;4676;42.678;23.244;2023-01-20T05:09:52;92891.59;;;7.51;100.00
9277;BME280;4676;42.678;23.244;2023-01-20T05:12:20;92889.38;;;7.45;100.00
9277;BME280;4676;42.678;23.244;2023-01-20T05:14:46;92880.03;;;7.47;100.00
9277;BME280;4676;42.678;23.244;2023-01-20T05:17:13;92877.06;;;7.74;100.00
9277;BME280;4676;42.678;23.244;2023-01-20T05:19:40;92878.09;;;7.87;100.00
9277;BME280;4676;42.678;23.244;2023-01-20T05:22:07;92878.53;;;7.95;100.00
9277;BME280;4676;42.678;23.244;2023-01-20T05:24:34;92895.75;;;8.04;100.00
9277;BME280;4676;42.678;23.244;2023-01-20T05:27:01;92891.66;;;8.01;100.00
9277;BME280;4676;42.678;23.244;2023-01-20T05:29:29;92889.66;;;7.91;100.00
9277;BME280;4676;42.678;23.244;2023-01-20T05:31:57;92891.91;;;7.63;100.00
9277;BME280;4676;42.678;23.244;2023-01-20T05:34:23;92906.63;;;7.53;100.00
9277;BME280;4676;42.678;23.244;2023-01-20T05:36:51;92907.81;;;7.46;100.00
9277;BME280;4676;42.678;23.244;2023-01-20T05:39:18;92903.81;;;7.42;100.00
9277;BME280;4676;42.678;23.244;2023-01-20T05:41:46;92887.63;;;7.46;100.00
9277;BME280;4676;42.678;23.244;2023-01-20T05:44:14;92870.41;;;7.56;100.00
9277;BME280;4676;42.678;23.244;2023-01-20T05:46:42;92856.38;;;7.50;100.00
9277;BME280;4676;42.678;23.244;2023-01-20T05:49:09;92837.75;;;7.35;100.00
9277;BME280;4676;42.678;23.244;2023-01-20T05:51:36;92846.94;;;7.36;100.00
9277;BME280;4676;42.678;23.244;2023-01-20T05:54:03;92817.97;;;7.11;100.00
9277;BME280;4676;42.678;23.244;2023-01-20T05:56:30;92862.56;;;7.09;100.00
9277;BME280;4676;42.678;23.244;2023-01-20T05:58:56;92886.91;;;7.08;100.00
9277;BME280;4676;42.678;23.244;2023-01-20T06:01:23;92858.59;;;6.86;100.00
9277;BME280;4676;42.678;23.244;2023-01-20T06:03:51;92868.41;;;7.09;100.00
9277;BME280;4676;42.678;23.244;2023-01-20T06:06:18;92888.63;;;7.08;100.00
9277;BME280;4676;42.678;23.244;2023-01-20T06:08:45;92861.53;;;7.13;100.00
9277;BME280;4676;42.678;23.244;2023-01-20T06:11:13;92866.22;;;7.20;100.00
9277;BME280;4676;42.678;23.244;2023-01-20T06:13:42;92869.69;;;7.18;100.00
9277;BME280;4676;42.678;23.244;2023-01-20T06:16:08;92876.84;;;7.08;100.00
9277;BME280;4676;42.678;23.244;2023-01-20T06:18:35;92890.19;;;7.10;100.00
9277;BME280;4676;42.678;23.244;2023-01-20T06:21:04;92903.53;;;7.12;100.00
9277;BME280;4676;42.678;23.244;2023-01-20T06:23:30;92868.25;;;7.12;100.00
9277;BME280;4676;42.678;23.244;2023-01-20T06:25:59;92872.47;;;7.12;100.00
9277;BME280;4676;42.678;23.244;2023-01-20T06:28:26;92899.63;;;7.24;100.00
9277;BME280;4676;42.678;23.244;2023-01-20T06:30:58;92886.25;;;7.40;100.00
9277;BME280;4676;42.678;23.244;2023-01-20T06:33:25;92881.66;;;7.31;100.00
9277;BME280;4676;42.678;23.244;2023-01-20T06:35:53;92883.25;;;7.32;100.00
9277;BME280;4676;42.678;23.244;2023-01-20T06:38:22;92896.09;;;7.28;100.00
9277;BME280;4676;42.678;23.244;2023-01-20T06:40:49;92874.28;;;7.27;100.00
9277;BME280;4676;42.678;23.244;2023-01-20T06:43:16;92884.16;;;7.31;100.00
9277;BME280;4676;42.678;23.244;2023-01-20T06:45:43;92880.00;;;7.30;100.00
9277;BME280;4676;42.678;23.244;2023-01-20T06:48:09;92863.78;;;7.36;100.00
9277;BME280;4676;42.678;23.244;2023-01-20T06:50:36;92860.31;;;7.38;100.00
9277;BME280;4676;42.678;23.244;2023-01-20T06:53:03;92871.50;;;7.50;100.00
9277;BME280;4676;42.678;23.244;2023-01-20T06:55:31;92878.84;;;7.54;100.00
9277;BME280;4676;42.678;23.244;2023-01-20T06:57:57;92869.63;;;7.53;100.00
9277;BME280;4676;42.678;23.244;2023-01-20T07:00:24;92878.69;;;7.58;100.00
9277;BME280;4676;42.678;23.244;2023-01-20T07:02:51;92862.88;;;7.71;100.00
9277;BME280;4676;42.678;23.244;2023-01-20T07:05:18;92872.81;;;7.57;100.00
9277;BME280;4676;42.678;23.244;2023-01-20T07:07:44;92861.03;;;7.58;100.00
9277;BME280;4676;42.678;23.244;2023-01-20T07:10:12;92861.03;;;7.58;100.00
9277;BME280;4676;42.678;23.244;2023-01-20T07:12:40;92851.63;;;7.61;100.00
9277;BME280;4676;42.678;23.244;2023-01-20T07:15:07;92866.69;;;7.63;100.00
9277;BME280;4676;42.678;23.244;2023-01-20T07:17:34;92865.13;;;7.60;100.00
9277;BME280;4676;42.678;23.244;2023-01-20T07:20:00;92872.31;;;7.68;100.00
9277;BME280;4676;42.678;23.244;2023-01-20T07:22:28;92859.03;;;7.64;100.00
9277;BME280;4676;42.678;23.244;2023-01-20T07:24:55;92866.31;;;7.70;100.00
9277;BME280;4676;42.678;23.244;2023-01-20T07:27:22;92864.53;;;7.72;100.00
9277;BME280;4676;42.678;23.244;2023-01-20T07:29:50;92864.53;;;7.72;100.00
9277;BME280;4676;42.678;23.244;2023-01-20T07:32:16;92852.28;;;7.65;100.00
9277;BME280;4676;42.678;23.244;2023-01-20T07:34:44;92856.16;;;7.72;100.00
9277;BME280;4676;42.678;23.244;2023-01-20T07:37:11;92841.91;;;7.71;100.00
9277;BME280;4676;42.678;23.244;2023-01-20T07:39:52;92835.97;;;7.72;100.00
9277;BME280;4676;42.678;23.244;2023-01-20T07:42:19;92841.09;;;7.70;100.00
9277;BME280;4676;42.678;23.244;2023-01-20T07:44:46;92834.94;;;7.76;100.00
9277;BME280;4676;42.678;23.244;2023-01-20T07:47:14;92817.88;;;7.64;100.00
9277;BME280;4676;42.678;23.244;2023-01-20T07:49:40;92831.69;;;7.74;100.00
9277;BME280;4676;42.678;23.244;2023-01-20T07:52:07;92821.22;;;7.64;100.00
9277;BME280;4676;42.678;23.244;2023-01-20T07:54:34;92818.84;;;7.61;100.00
9277;BME280;4676;42.678;23.244;2023-01-20T07:57:00;92806.91;;;7.65;100.00
9277;BME280;4676;42.678;23.244;2023-01-20T07:59:27;92819.69;;;7.62;100.00
9277;BME280;4676;42.678;23.244;2023-01-20T08:01:54;92834.28;;;7.72;100.00
9277;BME280;4676;42.678;23.244;2023-01-20T08:04:22;92828.50;;;7.70;100.00
9277;BME280;4676;42.678;23.244;2023-01-20T08:06:49;92823.47;;;7.70;100.00
9277;BME280;4676;42.678;23.244;2023-01-20T08:09:16;92805.56;;;7.75;100.00
9277;BME280;4676;42.678;23.244;2023-01-20T08:11:43;92802.09;;;7.77;100.00
9277;BME280;4676;42.678;23.244;2023-01-20T08:14:09;92789.72;;;7.73;100.00
9277;BME280;4676;42.678;23.244;2023-01-20T08:16:36;92794.66;;;7.74;100.00
9277;BME280;4676;42.678;23.244;2023-01-20T08:19:03;92807.19;;;7.76;100.00
9277;BME280;4676;42.678;23.244;2023-01-20T08:21:31;92816.31;;;7.78;100.00
9277;BME280;4676;42.678;23.244;2023-01-20T08:23:59;92818.47;;;7.69;100.00
9277;BME280;4676;42.678;23.244;2023-01-20T08:26:28;92805.44;;;7.61;100.00
9277;BME280;4676;42.678;23.244;2023-01-20T08:28:59;92805.00;;;7.52;100.00
9277;BME280;4676;42.678;23.244;2023-01-20T08:31:26;92808.94;;;7.58;100.00
9277;BME280;4676;42.678;23.244;2023-01-20T08:33:54;92798.91;;;7.57;100.00
9277;BME280;4676;42.678;23.244;2023-01-20T08:36:23;92789.88;;;7.52;100.00
9277;BME280;4676;42.678;23.244;2023-01-20T08:38:53;92774.97;;;7.48;100.00
9277;BME280;4676;42.678;23.244;2023-01-20T08:41:23;92761.78;;;7.43;100.00
9277;BME280;4676;42.678;23.244;2023-01-20T08:43:50;92755.78;;;7.45;100.00
9277;BME280;4676;42.678;23.244;2023-01-20T08:46:18;92754.97;;;7.45;100.00
9277;BME280;4676;42.678;23.244;2023-01-20T08:48:46;92755.31;;;7.54;100.00
9277;BME280;4676;42.678;23.244;2023-01-20T08:51:15;92728.47;;;7.53;100.00
9277;BME280;4676;42.678;23.244;2023-01-20T08:53:43;92748.88;;;7.82;100.00
9277;BME280;4676;42.678;23.244;2023-01-20T08:56:12;92747.28;;;7.96;100.00
9277;BME280;4676;42.678;23.244;2023-01-20T08:58:39;92753.75;;;8.02;100.00
9277;BME280;4676;42.678;23.244;2023-01-20T09:01:07;92758.78;;;8.18;100.00
9277;BME280;4676;42.678;23.244;2023-01-20T09:03:34;92760.56;;;8.33;100.00
9277;BME280;4676;42.678;23.244;2023-01-20T09:06:02;92766.91;;;8.40;100.00
9277;BME280;4676;42.678;23.244;2023-01-20T09:08:28;92757.63;;;8.40;100.00
9277;BME280;4676;42.678;23.244;2023-01-20T09:11:01;92756.47;;;8.46;100.00
9277;BME280;4676;42.678;23.244;2023-01-20T09:13:29;92756.13;;;8.52;100.00
9277;BME280;4676;42.678;23.244;2023-01-20T09:15:56;92753.84;;;8.63;100.00
9277;BME280;4676;42.678;23.244;2023-01-20T09:18:22;92752.38;;;8.59;100.00
9277;BME280;4676;42.678;23.244;2023-01-20T09:20:49;92744.81;;;8.59;100.00
9277;BME280;4676;42.678;23.244;2023-01-20T09:23:16;92748.91;;;8.62;100.00
9277;BME280;4676;42.678;23.244;2023-01-20T09:25:43;92747.16;;;8.78;100.00
9277;BME280;4676;42.678;23.244;2023-01-20T09:28:10;92748.47;;;8.69;100.00
9277;BME280;4676;42.678;23.244;2023-01-20T09:30:39;92740.66;;;8.74;100.00
9277;BME280;4676;42.678;23.244;2023-01-20T09:33:08;92734.94;;;8.70;100.00
9277;BME280;4676;42.678;23.244;2023-01-20T09:35:34;92744.94;;;8.87;100.00
9277;BME280;4676;42.678;23.244;2023-01-20T09:38:01;92737.13;;;8.92;100.00
9277;BME280;4676;42.678;23.244;2023-01-20T09:40:47;92735.69;;;9.02;100.00
9277;BME280;4676;42.678;23.244;2023-01-20T09:43:40;92732.69;;;8.95;100.00
9277;BME280;4676;42.678;23.244;2023-01-20T09:46:30;92742.03;;;9.09;100.00
9277;BME280;4676;42.678;23.244;2023-01-20T09:49:10;92745.44;;;9.08;100.00
9277;BME280;4676;42.678;23.244;2023-01-20T09:52:07;92740.94;;;8.99;100.00
9277;BME280;4676;42.678;23.244;2023-01-20T09:54:58;92734.66;;;8.90;100.00
9277;BME280;4676;42.678;23.244;2023-01-20T09:57:29;92724.09;;;8.84;100.00
9277;BME280;4676;42.678;23.244;2023-01-20T10:00:02;92728.84;;;8.74;100.00
9277;BME280;4676;42.678;23.244;2023-01-20T10:02:34;92728.13;;;8.72;100.00
9277;BME280;4676;42.678;23.244;2023-01-20T10:05:06;92725.31;;;8.77;100.00
9277;BME280;4676;42.678;23.244;2023-01-20T10:07:40;92710.75;;;8.82;100.00
9277;BME280;4676;42.678;23.244;2023-01-20T10:10:12;92713.56;;;8.91;100.00
9277;BME280;4676;42.678;23.244;2023-01-20T10:12:43;92695.88;;;8.91;100.00
9277;BME280;4676;42.678;23.244;2023-01-20T10:15:16;92702.50;;;9.08;100.00
9277;BME280;4676;42.678;23.244;2023-01-20T10:17:50;92692.31;;;9.10;100.00
9277;BME280;4676;42.678;23.244;2023-01-20T10:20:26;92679.88;;;9.21;100.00
9277;BME280;4676;42.678;23.244;2023-01-20T10:23:00;92676.13;;;9.42;100.00
9277;BME280;4676;42.678;23.244;2023-01-20T10:25:33;92682.50;;;9.33;100.00
9277;BME280;4676;42.678;23.244;2023-01-20T10:28:21;92688.47;;;9.32;100.00
9277;BME280;4676;42.678;23.244;2023-01-20T10:30:51;92684.84;;;9.36;100.00
9277;BME280;4676;42.678;23.244;2023-01-20T10:33:25;92675.91;;;9.31;100.00
9277;BME280;4676;42.678;23.244;2023-01-20T10:35:54;92691.53;;;9.37;100.00
9277;BME280;4676;42.678;23.244;2023-01-20T10:38:28;92687.31;;;9.38;100.00
9277;BME280;4676;42.678;23.244;2023-01-20T10:41:03;92686.41;;;9.39;100.00
9277;BME280;4676;42.678;23.244;2023-01-20T10:43:33;92684.16;;;9.34;100.00
9277;BME280;4676;42.678;23.244;2023-01-20T10:46:15;92682.69;;;9.30;100.00
9277;BME280;4676;42.678;23.244;2023-01-20T10:51:46;92673.56;;;9.28;100.00
9277;BME280;4676;42.678;23.244;2023-01-20T10:54:24;92683.13;;;9.23;100.00
9277;BME280;4676;42.678;23.244;2023-01-20T10:56:53;92683.47;;;9.17;100.00
9277;BME280;4676;42.678;23.244;2023-01-20T10:59:26;92688.16;;;9.09;100.00
9277;BME280;4676;42.678;23.244;2023-01-20T11:01:56;92696.34;;;8.98;100.00
9277;BME280;4676;42.678;23.244;2023-01-20T11:04:27;92696.16;;;9.01;100.00
9277;BME280;4676;42.678;23.244;2023-01-20T11:06:57;92702.22;;;8.98;100.00
9277;BME280;4676;42.678;23.244;2023-01-20T11:09:31;92705.97;;;8.91;100.00
9277;BME280;4676;42.678;23.244;2023-01-20T11:12:01;92692.47;;;8.92;100.00
9277;BME280;4676;42.678;23.244;2023-01-20T11:14:28;92691.53;;;8.79;100.00
9277;BME280;4676;42.678;23.244;2023-01-20T11:16:59;92687.84;;;8.69;100.00
9277;BME280;4676;42.678;23.244;2023-01-20T11:19:43;92699.34;;;8.59;100.00
9277;BME280;4676;42.678;23.244;2023-01-20T11:22:12;92705.34;;;8.42;100.00
9277;BME280;4676;42.678;23.244;2023-01-20T11:24:42;92692.72;;;8.27;100.00
9277;BME280;4676;42.678;23.244;2023-01-20T11:27:12;92687.66;;;8.11;100.00
9277;BME280;4676;42.678;23.244;2023-01-20T11:29:41;92700.50;;;7.91;100.00
9277;BME280;4676;42.678;23.244;2023-01-20T11:32:27;92697.31;;;7.72;100.00
9277;BME280;4676;42.678;23.244;2023-01-20T11:34:57;92705.97;;;7.50;100.00
9277;BME280;4676;42.678;23.244;2023-01-20T11:37:25;92700.88;;;7.35;100.00
9277;BME280;4676;42.678;23.244;2023-01-20T11:40:00;92700.09;;;7.17;100.00
9277;BME280;4676;42.678;23.244;2023-01-20T11:42:28;92715.44;;;7.13;100.00
9277;BME280;4676;42.678;23.244;2023-01-20T11:44:57;92706.53;;;7.06;100.00
9277;BME280;4676;42.678;23.244;2023-01-20T11:47:26;92713.38;;;7.03;100.00
9277;BME280;4676;42.678;23.244;2023-01-20T11:50:17;92732.91;;;6.98;100.00
9277;BME280;4676;42.678;23.244;2023-01-20T11:52:45;92718.16;;;6.91;100.00
9277;BME280;4676;42.678;23.244;2023-01-20T11:55:13;92727.34;;;6.75;100.00
9277;BME280;4676;42.678;23.244;2023-01-20T11:57:43;92736.59;;;6.57;100.00
9277;BME280;4676;42.678;23.244;2023-01-20T12:00:30;92739.06;;;6.40;100.00
9277;BME280;4676;42.678;23.244;2023-01-20T12:02:58;92751.38;;;6.27;100.00
9277;BME280;4676;42.678;23.244;2023-01-20T12:05:32;92750.63;;;5.88;100.00
9277;BME280;4676;42.678;23.244;2023-01-20T12:08:04;92751.19;;;5.74;100.00
9277;BME280;4676;42.678;23.244;2023-01-20T12:10:36;92758.78;;;5.54;100.00
9277;BME280;4676;42.678;23.244;2023-01-20T12:13:10;92770.66;;;5.30;100.00
9277;BME280;4676;42.678;23.244;2023-01-20T12:15:41;92778.78;;;5.17;100.00
9277;BME280;4676;42.678;23.244;2023-01-20T12:18:14;92780.19;;;5.02;100.00
9277;BME280;4676;42.678;23.244;2023-01-20T12:20:47;92778.03;;;4.93;100.00
9277;BME280;4676;42.678;23.244;2023-01-20T12:23:19;92786.06;;;4.81;100.00
9277;BME280;4676;42.678;23.244;2023-01-20T12:25:52;92786.88;;;4.81;100.00
9277;BME280;4676;42.678;23.244;2023-01-20T12:28:24;92811.09;;;4.82;100.00
9277;BME280;4676;42.678;23.244;2023-01-20T12:30:57;92818.41;;;4.67;100.00
9277;BME280;4676;42.678;23.244;2023-01-20T12:33:27;92822.34;;;4.50;100.00
9277;BME280;4676;42.678;23.244;2023-01-20T12:36:08;92832.19;;;4.33;100.00
9277;BME280;4676;42.678;23.244;2023-01-20T12:38:45;92778.00;;;3.61;100.00
9277;BME280;4676;42.678;23.244;2023-01-20T12:41:25;92840.13;;;3.76;100.00
9277;BME280;4676;42.678;23.244;2023-01-20T12:44:01;92847.22;;;3.64;100.00
9277;BME280;4676;42.678;23.244;2023-01-20T12:46:40;92849.47;;;3.71;100.00
9277;BME280;4676;42.678;23.244;2023-01-20T12:49:47;92838.50;;;3.74;100.00
9277;BME280;4676;42.678;23.244;2023-01-20T12:52:25;92836.59;;;3.80;100.00
9277;BME280;4676;42.678;23.244;2023-01-20T12:55:18;92828.78;;;3.89;100.00
9277;BME280;4676;42.678;23.244;2023-01-20T12:57:59;92837.66;;;3.98;100.00
9277;BME280;4676;42.678;23.244;2023-01-20T13:00:55;92831.47;;;4.08;100.00
9277;BME280;4676;42.678;23.244;2023-01-20T13:04:04;92833.75;;;4.14;100.00
9277;BME280;4676;42.678;23.244;2023-01-20T13:06:44;92840.88;;;4.25;100.00
9277;BME280;4676;42.678;23.244;2023-01-20T13:09:26;92826.47;;;4.30;100.00
9277;BME280;4676;42.678;23.244;2023-01-20T13:12:08;92828.66;;;4.39;100.00
9277;BME280;4676;42.678;23.244;2023-01-20T13:14:41;92835.41;;;4.37;100.00
9277;BME280;4676;42.678;23.244;2023-01-20T13:17:16;92840.84;;;4.48;100.00
9277;BME280;4676;42.678;23.244;2023-01-20T13:19:45;92848.09;;;4.56;100.00
9277;BME280;4676;42.678;23.244;2023-01-20T13:22:16;92853.09;;;4.56;100.00
9277;BME280;4676;42.678;23.244;2023-01-20T13:24:47;92852.13;;;4.60;100.00
9277;BME280;4676;42.678;23.244;2023-01-20T13:27:24;92856.47;;;4.54;100.00
9277;BME280;4676;42.678;23.244;2023-01-20T13:29:54;92855.91;;;4.48;100.00
9277;BME280;4676;42.678;23.244;2023-01-20T13:32:26;92863.38;;;4.49;100.00